x

Freeport, Tx - 60 Nm South Of Freeport, Tx (42019) Wave Buoy

6:50pm - Mon 15th Sep 2014 All times are CDT. -5 hours from GMT.

  • Sig Wave height 3.9ft
  • Swell Direction
  • Peak Period 7s
  • Average Period 5s
  • Wind
    16mph, 18mph gusts
  • Sea Temp 85°f
  • Air Temp 84°f
  • Sea Pressure 1015mb
  • Freeport, Tx - 60 Nm South Of Freeport, Tx
  • Freeport, Tx - 60 Nm South Of Freeport, Tx

More Historic Weather Station data

Upgrade to MSW Pro to gain access to the past 30 days of data for over 8000 Wavebouys and Weather Stations around the globe.

Join Pro

Comparision Forecast

View Surf forecast
   
Mon 09/15 6:50pm 4ft 7s 5s 16 18 mph 1015mb 85f 84f
5:50pm 4ft 7s 5s 16 18 mph 1015.1mb 85f 84f
4:50pm 4ft 7s 5s 13 16 mph 1015mb 85f 84f
3:50pm 4.5ft 6s 5s 13 16 mph 1015.3mb 85f 83f
2:50pm 4.5ft 6s 5s 18 20 mph 1015.5mb 85f 83f
1:50pm 4.5ft 7s 5s 18 20 mph 1016.3mb 85f 84f
12:50pm 4ft 6s 5s 16 20 mph 1016.9mb 85f 82f
11:50am 4ft 6s 5s 16 18 mph 1017.1mb 85f 83f
10:50am 4ft 6s 5s 13 18 mph 1017.2mb 85f 83f
9:50am 4ft 6s 5s 18 20 mph 1017.3mb 85f 83f
8:50am 4.5ft 7s 5s 18 20 mph 1017mb 85f 83f
7:50am 4ft 5s 4s 18 20 mph 1016.8mb 85f 82f
6:50am 4.5ft 6s 5s 16 18 mph 1016.5mb 85f 82f
5:50am 4ft 7s 5s 16 20 mph 1016.4mb 85f 82f
4:50am 4.5ft 6s 5s 16 18 mph 1016.7mb 85f 82f
3:50am 4.5ft 7s 5s 16 18 mph 1016.7mb 85f 82f
2:50am 4.5ft 6s 5s 18 20 mph 1017.1mb 85f 82f
1:50am 4.5ft 6s 5s 16 20 mph 1017.4mb 85f 82f
12:50am 5ft 6s 5s 18 22 mph 1017.3mb 85f 82f
Sun 09/14 11:50pm 4.5ft 6s 5s 18 22 mph 1017.9mb 85f 81f
10:50pm 4ft 6s 4s 20 22 mph 1018.1mb 85f 81f
9:50pm 4.5ft 6s 5s 20 22 mph 1018.2mb 85f 80f
8:50pm 4.5ft 5s 4s 18 22 mph 1017.9mb 85f 80f
7:50pm 4.5ft 6s 5s 20 22 mph 1017.6mb 85f 79f
6:50pm 5ft 6s 5s 22 25 mph 1016.9mb 85f 79f
5:50pm 4.5ft 6s 4s 22 27 mph 1017.1mb 85f 79f
4:50pm 4.5ft 6s 4s 20 25 mph 1017.3mb 85f 80f
3:50pm 4.5ft 6s 5s 18 22 mph 1017.6mb 85f 80f
2:50pm 4.5ft 6s 5s 18 22 mph 1017.8mb 85f 80f
1:50pm 4.5ft 6s 5s 18 20 mph 1018.6mb 85f 80f
12:50pm 4.5ft 5s 5s 18 22 mph 1019.1mb 85f 80f
11:50am 4.5ft 6s 5s 20 22 mph 1019.3mb 85f 80f
10:50am 4.5ft 6s 5s 20 25 mph 1019.5mb 85f 80f
9:50am 5ft 6s 5s 20 25 mph 1019.6mb 85f 80f
8:50am 5ft 6s 5s 18 22 mph 1019.1mb 85f 80f
7:50am 5.5ft 6s 5s 20 25 mph 1018.2mb 85f 80f
6:50am 5ft 6s 5s 20 25 mph 1018.1mb 85f 80f
5:50am 5ft 6s 5s 20 25 mph 1017.6mb 85f 80f
4:50am 6ft 6s 5s 20 22 mph 1017.6mb 85f 81f
3:50am 6ft 6s 5s 20 25 mph 1017.4mb 85f 81f
2:50am 5ft 6s 5s 22 27 mph 1017.2mb 85f 81f
1:50am 5.5ft 6s 5s 22 27 mph 1017.4mb 85f 81f
12:50am 5ft 6s 5s 22 25 mph 1018mb 85f 81f
Sat 09/13 11:50pm 5ft 6s 5s 20 25 mph 1018.4mb 85f 81f
10:50pm 5ft 6s 5s 18 22 mph 1018.3mb 85f 82f
9:50pm 6ft 7s 5s 18 22 mph 1018.3mb 85f 82f
8:50pm 6ft 7s 5s 20 22 mph 1017.6mb 85f 82f
7:50pm 6ft 7s 5s 18 22 mph 1017.3mb 86f 81f
6:50pm 6.5ft 7s 5s 20 22 mph 1017mb 86f 81f
5:50pm 6ft 7s 5s 22 25 mph 1016.3mb 86f 81f
4:50pm 5ft 6s 5s 20 25 mph 1016.2mb 86f 80f
3:50pm 4.5ft 5s 4s 25 29 mph 1015.9mb 86f 81f
2:50pm 3.5ft 4s 4s 20 22 mph 1015.8mb 86f 83f
1:50pm 3.5ft 8s 5s 11 13 mph 1016.8mb 86f 85f
12:50pm 3.5ft 8s 5s 9 11 mph 1017.2mb 86f 85f
11:50am 3.5ft 8s 5s 9 11 mph 1017.8mb 86f 85f
10:50am 3.5ft 8s 5s 11 16 mph 1016.9mb 86f 85f
9:50am 3.5ft 8s 5s 11 13 mph 1016.7mb 86f 85f
8:50am 3.5ft 8s 5s 9 11 mph 1016.5mb 85f 84f
7:50am 3.5ft 8s 5s 13 18 mph 1015.8mb 85f 84f
6:50am 3.5ft 8s 5s 9 13 mph 1015.6mb 85f 84f
5:50am 3ft 6s 4s 11
mph
1015.2mb 85f 83f
4:50am 3ft 6s 4s 11 13 mph 1014.6mb 85f 84f
3:50am 3ft 6s 4s 11 13 mph 1014.4mb 85f 83f
2:50am 2.5ft 6s 4s 11 13 mph 1014.9mb 85f 83f
1:50am 2.5ft 5s 4s 11 13 mph 1015mb 85f 83f
12:50am 2.5ft 5s 4s 9 11 mph 1015.3mb 85f 83f
Fri 09/12 11:50pm 2.5ft 5s 4s 7 9 mph 1015.4mb 85f 81f
10:50pm  -   -   -  9 13 mph 1015.7mb 86f 78f
9:50pm 2ft 5s 4s 18 22 mph 1016mb 86f 85f
8:50pm 1.6ft 5s 4s 13 16 mph 1014.9mb 86f 84f
7:50pm 1.6ft 5s 4s 11
mph
1014mb 86f 84f
6:50pm 1.6ft 5s 4s 9 11 mph 1013.5mb 86f 84f
5:50pm 1.6ft 4s 4s 7 9 mph 1013.6mb 86f 84f
4:50pm 2ft 5s 4s 7
mph
1013.4mb 86f 84f
3:50pm 1.6ft 5s 4s 7
mph
1013mb 86f 84f
2:50pm 2ft 4s 4s 9 11 mph 1013.7mb 86f 84f
1:50pm 2ft 5s 4s 11 13 mph 1013.9mb 86f 85f
12:50pm 1.6ft 5s 4s 13 16 mph 1014.5mb 86f 85f
11:50am 1.6ft 4s 4s 11 13 mph 1014.7mb 86f 84f
10:50am 1.6ft 4s 4s 4 7 mph 1015mb 85f 83f
9:50am 1.6ft 4s 4s 9 11 mph 1014.4mb 85f 84f
8:50am 1.6ft 5s 4s 11
mph
1014.2mb 85f 84f
7:50am 1.6ft 5s 4s 9 11 mph 1013.9mb 85f 84f
6:50am 1.6ft 4s 4s 9 11 mph 1013.5mb 85f 84f
5:50am 1.6ft 5s 4s 9 11 mph 1013.1mb 85f 84f
4:50am 1.6ft 5s 4s 9
mph
1013mb 85f 83f
3:50am 1.6ft 5s 3s 7 11 mph 1013.4mb 85f 84f
2:50am 2ft 5s 4s 11 13 mph 1013.7mb 85f 84f
1:50am 2ft 4s 3s 16 20 mph 1013.8mb 85f 84f